Time;durP1;ratioP1;P1;durP2;ratioP2;P2;SDS_P1;SDS_P2;PMS_P1;PMS_P2;Temp;Humidity;BMP_temperature;BMP_pressure;BME280_temperature;BME280_humidity;BME280_pressure;Samples;Min_cycle;Max_cycle;Signal;HPM_P1;HPM_P2
2022/11/02 00:01:14;;;;;;;105.47;85.10;;;;;;;;;;5007618;28;20246;-72
2022/11/02 00:03:40;;;;;;;179.13;111.67;;;;;;;;;;4997160;28;20239;-72
2022/11/02 00:06:06;;;;;;;172.00;111.23;;;;;;;;;;4989526;28;20230;-73
2022/11/02 00:08:32;;;;;;;173.00;110.37;;;;;;;;;;5011127;28;20588;-72
2022/11/02 00:10:58;;;;;;;129.87;93.43;;;;;;;;;;5009742;28;20709;-73
2022/11/02 00:13:24;;;;;;;104.90;84.80;;;;;;;;;;5006378;28;20228;-72
2022/11/02 00:15:50;;;;;;;174.10;113.03;;;;;;;;;;5007638;28;20781;-73
2022/11/02 00:18:16;;;;;;;135.17;96.60;;;;;;;;;;5025152;28;20222;-72
2022/11/02 00:20:42;;;;;;;146.93;98.13;;;;;;;;;;5021587;28;20223;-72
2022/11/02 00:23:11;;;;;;;142.40;97.13;;;;;;;;;;5019234;28;20735;-72
2022/11/02 00:25:41;;;;;;;109.87;86.60;;;;;;;;;;5031615;28;20246;-72
2022/11/02 00:28:08;;;;;;;201.93;120.10;;;;;;;;;;5009233;28;22849;-73
2022/11/02 00:30:33;;;;;;;113.33;88.73;;;;;;;;;;5007568;28;20188;-72
2022/11/02 00:32:59;;;;;;;118.07;89.43;;;;;;;;;;5011451;28;20241;-72
2022/11/02 00:35:25;;;;;;;160.03;104.03;;;;;;;;;;5011521;28;20318;-73
2022/11/02 00:37:51;;;;;;;188.43;113.47;;;;;;;;;;4999198;28;20713;-72
2022/11/02 00:40:17;;;;;;;167.07;108.10;;;;;;;;;;4996287;28;20963;-72
2022/11/02 00:42:43;;;;;;;173.90;110.80;;;;;;;;;;4999579;28;20227;-72
2022/11/02 00:45:09;;;;;;;178.20;111.13;;;;;;;;;;4987414;28;20195;-72
2022/11/02 00:47:35;;;;;;;108.30;85.17;;;;;;;;;;5020793;28;20265;-73
2022/11/02 00:50:01;;;;;;;154.90;102.93;;;;;;;;;;4997655;28;20209;-72
2022/11/02 00:52:27;;;;;;;152.23;102.17;;;;;;;;;;4998155;28;20219;-73
2022/11/02 00:54:53;;;;;;;175.67;109.93;;;;;;;;;;4998955;28;20222;-72
2022/11/02 00:57:19;;;;;;;142.70;96.63;;;;;;;;;;4995868;28;20326;-72
2022/11/02 00:59:45;;;;;;;138.10;95.87;;;;;;;;;;5001607;28;20263;-72
2022/11/02 01:02:11;;;;;;;123.17;88.90;;;;;;;;;;4999841;28;20226;-72
2022/11/02 01:04:37;;;;;;;140.60;97.33;;;;;;;;;;4996053;28;20224;-72
2022/11/02 01:07:03;;;;;;;172.30;108.80;;;;;;;;;;4994985;28;20228;-72
2022/11/02 01:09:29;;;;;;;165.50;105.63;;;;;;;;;;4988404;28;20199;-72
2022/11/02 01:11:55;;;;;;;187.00;116.83;;;;;;;;;;4987642;28;20621;-72
2022/11/02 01:14:21;;;;;;;160.33;105.47;;;;;;;;;;4992110;28;20270;-72
2022/11/02 01:16:47;;;;;;;161.93;103.60;;;;;;;;;;4990377;28;20230;-72
2022/11/02 01:19:13;;;;;;;164.93;106.30;;;;;;;;;;4991266;28;20217;-72
2022/11/02 01:21:40;;;;;;;271.20;143.97;;;;;;;;;;4986328;28;20186;-72
2022/11/02 01:24:06;;;;;;;163.03;101.97;;;;;;;;;;4992571;28;20279;-71
2022/11/02 01:26:32;;;;;;;119.50;87.87;;;;;;;;;;5001741;28;20224;-72
2022/11/02 01:28:58;;;;;;;126.20;89.23;;;;;;;;;;4997290;28;20213;-73
2022/11/02 01:31:24;;;;;;;86.23;76.80;;;;;;;;;;5006667;28;20227;-72
2022/11/02 01:33:50;;;;;;;178.40;105.07;;;;;;;;;;5009571;28;20239;-72
2022/11/02 01:36:19;;;;;;;122.47;88.47;;;;;;;;;;5009128;28;20330;-73
2022/11/02 01:38:46;;;;;;;150.23;94.50;;;;;;;;;;5031763;28;20230;-72
2022/11/02 01:41:12;;;;;;;113.20;83.43;;;;;;;;;;5030476;28;20225;-72
2022/11/02 01:43:41;;;;;;;145.77;94.37;;;;;;;;;;5015384;28;20242;-72
2022/11/02 01:46:16;;;;;;;132.87;90.23;;;;;;;;;;5020499;28;20231;-72
2022/11/02 01:48:55;;;;;;;124.33;86.93;;;;;;;;;;5018087;28;20183;-71
2022/11/02 01:51:23;;;;;;;88.27;75.97;;;;;;;;;;5005137;28;20315;-72
2022/11/02 01:53:50;;;;;;;120.17;86.50;;;;;;;;;;5011623;28;20224;-72
2022/11/02 01:56:17;;;;;;;175.13;104.97;;;;;;;;;;5004413;28;21726;-72
2022/11/02 01:58:45;;;;;;;183.83;107.87;;;;;;;;;;4993161;28;20247;-73
2022/11/02 02:01:11;;;;;;;116.07;83.47;;;;;;;;;;5002586;28;21386;-74
2022/11/02 02:03:37;;;;;;;132.87;92.47;;;;;;;;;;5004515;28;20195;-73
2022/11/02 02:06:09;;;;;;;136.47;91.30;;;;;;;;;;5000164;28;20177;-73
2022/11/02 02:08:37;;;;;;;95.93;77.03;;;;;;;;;;5013781;28;20208;-73
2022/11/02 02:11:23;;;;;;;79.20;70.43;;;;;;;;;;5024755;28;20252;-73
2022/11/02 02:13:50;;;;;;;144.77;92.73;;;;;;;;;;5024438;28;20234;-72
2022/11/02 02:16:19;;;;;;;101.40;77.43;;;;;;;;;;5015393;28;23401;-72
2022/11/02 02:18:50;;;;;;;104.37;79.87;;;;;;;;;;5007516;28;20262;-72
2022/11/02 02:21:35;;;;;;;141.83;91.23;;;;;;;;;;5003217;28;20193;-73
2022/11/02 02:24:10;;;;;;;109.90;82.93;;;;;;;;;;5018774;28;20227;-73
2022/11/02 02:26:41;;;;;;;159.93;100.27;;;;;;;;;;5021640;28;20227;-72
2022/11/02 02:29:14;;;;;;;101.13;78.17;;;;;;;;;;5012783;28;20220;-72
2022/11/02 02:31:45;;;;;;;123.53;86.03;;;;;;;;;;5009285;28;20322;-72
2022/11/02 02:34:24;;;;;;;136.00;89.43;;;;;;;;;;5008111;28;25747;-72
2022/11/02 02:36:52;;;;;;;165.77;101.70;;;;;;;;;;4999800;28;20223;-73
2022/11/02 02:39:26;;;;;;;146.83;94.50;;;;;;;;;;5024288;28;20222;-72
2022/11/02 02:41:56;;;;;;;132.73;89.30;;;;;;;;;;4998720;28;20303;-73
2022/11/02 02:44:23;;;;;;;172.33;106.07;;;;;;;;;;4999599;28;20254;-72
2022/11/02 02:46:57;;;;;;;175.17;105.87;;;;;;;;;;5000074;28;20238;-72
2022/11/02 02:49:36;;;;;;;179.50;108.03;;;;;;;;;;4994654;28;20272;-72
2022/11/02 02:52:02;;;;;;;143.13;94.50;;;;;;;;;;5006662;28;20219;-72
2022/11/02 02:54:35;;;;;;;175.17;105.73;;;;;;;;;;5025880;28;20187;-72
2022/11/02 02:57:03;;;;;;;165.20;102.27;;;;;;;;;;4995881;28;20212;-72
2022/11/02 02:59:31;;;;;;;181.57;105.93;;;;;;;;;;5009245;28;20215;-73
2022/11/02 03:01:57;;;;;;;167.33;101.10;;;;;;;;;;5030388;28;21082;-72
2022/11/02 03:04:24;;;;;;;90.87;75.60;;;;;;;;;;5029550;28;20253;-71
2022/11/02 03:06:58;;;;;;;107.87;82.13;;;;;;;;;;5033421;28;20221;-73
2022/11/02 03:09:34;;;;;;;120.30;88.67;;;;;;;;;;5030122;28;20188;-71
2022/11/02 03:12:00;;;;;;;197.93;114.53;;;;;;;;;;5026843;28;20300;-73
2022/11/02 03:14:33;;;;;;;166.77;102.70;;;;;;;;;;5009308;28;20215;-72
2022/11/02 03:17:15;;;;;;;124.40;87.67;;;;;;;;;;5011304;28;20880;-72
2022/11/02 03:19:41;;;;;;;143.53;94.43;;;;;;;;;;5023575;28;20222;-72
2022/11/02 03:22:15;;;;;;;171.93;102.97;;;;;;;;;;5022757;28;20211;-72
2022/11/02 03:24:54;;;;;;;137.90;92.57;;;;;;;;;;5035694;28;20231;-71
2022/11/02 03:27:46;;;;;;;97.67;78.67;;;;;;;;;;5045349;28;20286;-72
2022/11/02 03:30:20;;;;;;;135.27;88.13;;;;;;;;;;5028288;28;20211;-72
2022/11/02 03:32:57;;;;;;;150.77;96.20;;;;;;;;;;5037789;28;20223;-72
2022/11/02 03:35:40;;;;;;;155.83;98.33;;;;;;;;;;5020309;28;20715;-72
2022/11/02 03:38:11;;;;;;;161.17;100.30;;;;;;;;;;5005527;28;20233;-72
2022/11/02 03:40:44;;;;;;;179.93;107.03;;;;;;;;;;4993800;28;20212;-72
2022/11/02 03:43:11;;;;;;;175.97;106.70;;;;;;;;;;4994119;28;20209;-72
2022/11/02 03:45:42;;;;;;;166.50;103.50;;;;;;;;;;4999076;28;20195;-73
2022/11/02 03:48:11;;;;;;;173.27;106.20;;;;;;;;;;5022306;28;20195;-73
2022/11/02 03:50:40;;;;;;;143.13;94.97;;;;;;;;;;5004851;28;20211;-73
2022/11/02 03:53:09;;;;;;;155.13;99.17;;;;;;;;;;5022120;28;20212;-71
2022/11/02 03:55:37;;;;;;;166.03;102.67;;;;;;;;;;5011857;28;20216;-72
2022/11/02 03:58:03;;;;;;;152.00;100.37;;;;;;;;;;4998132;28;20224;-72
2022/11/02 04:00:33;;;;;;;128.40;92.70;;;;;;;;;;5005256;28;20187;-72
2022/11/02 04:03:02;;;;;;;126.23;90.83;;;;;;;;;;5012462;28;20816;-71
2022/11/02 04:05:36;;;;;;;183.00;111.87;;;;;;;;;;5016215;28;20587;-71
2022/11/02 04:08:20;;;;;;;121.03;85.57;;;;;;;;;;5008950;28;20913;-73
2022/11/02 04:16:16;;;;;;;104.20;84.77;;;;;;;;;;5013058;28;20215;-72
2022/11/02 04:21:27;;;;;;;154.43;99.53;;;;;;;;;;4993607;28;20251;-73
2022/11/02 04:26:38;;;;;;;157.80;102.47;;;;;;;;;;5010704;28;20226;-71
2022/11/02 04:29:04;;;;;;;113.13;85.27;;;;;;;;;;5022389;28;20208;-73
2022/11/02 04:31:30;;;;;;;144.83;97.80;;;;;;;;;;5011651;28;20225;-71
2022/11/02 04:33:59;;;;;;;150.67;96.10;;;;;;;;;;5013985;28;20254;-72
2022/11/02 04:36:25;;;;;;;161.03;100.10;;;;;;;;;;5011705;28;20202;-72
2022/11/02 04:38:51;;;;;;;155.47;97.80;;;;;;;;;;5018826;28;20206;-72
2022/11/02 04:44:04;;;;;;;158.33;101.63;;;;;;;;;;5002673;28;20219;-72
2022/11/02 04:46:30;;;;;;;94.97;77.40;;;;;;;;;;4998488;28;20281;-72
2022/11/02 04:48:56;;;;;;;195.17;114.40;;;;;;;;;;4999534;28;20227;-72
2022/11/02 04:51:23;;;;;;;126.20;87.63;;;;;;;;;;4994563;28;20200;-73
2022/11/02 04:53:49;;;;;;;144.67;95.00;;;;;;;;;;4999746;28;20235;-72
2022/11/02 04:56:15;;;;;;;121.87;85.80;;;;;;;;;;5017303;28;20211;-71
2022/11/02 04:58:41;;;;;;;169.60;103.83;;;;;;;;;;5026542;28;20234;-75
2022/11/02 05:01:08;;;;;;;105.77;81.47;;;;;;;;;;5023855;28;20222;-74
2022/11/02 05:03:34;;;;;;;124.80;91.83;;;;;;;;;;5028613;28;20184;-74
2022/11/02 05:06:01;;;;;;;125.43;89.23;;;;;;;;;;4993352;28;20581;-74
2022/11/02 05:08:26;;;;;;;138.23;95.27;;;;;;;;;;5001228;28;20219;-74
2022/11/02 05:10:56;;;;;;;133.67;93.23;;;;;;;;;;5008343;28;20215;-74
2022/11/02 05:13:26;;;;;;;139.47;95.50;;;;;;;;;;5005637;28;20220;-76
2022/11/02 05:15:56;;;;;;;187.57;110.60;;;;;;;;;;4997743;28;20212;-75
2022/11/02 05:18:22;;;;;;;230.63;124.63;;;;;;;;;;5002628;28;20546;-75
2022/11/02 05:20:51;;;;;;;151.43;100.03;;;;;;;;;;5034191;28;20203;-75
2022/11/02 05:23:17;;;;;;;199.27;111.20;;;;;;;;;;5044279;28;20692;-74
2022/11/02 05:25:51;;;;;;;312.70;146.20;;;;;;;;;;5033702;28;20211;-75
2022/11/02 05:28:17;;;;;;;282.83;135.33;;;;;;;;;;5024810;28;20258;-74
2022/11/02 05:30:43;;;;;;;248.50;122.40;;;;;;;;;;5013186;28;20651;-75
2022/11/02 05:33:09;;;;;;;297.40;141.93;;;;;;;;;;5023810;28;20184;-74
2022/11/02 05:35:34;;;;;;;283.73;143.10;;;;;;;;;;4998410;28;20909;-75
2022/11/02 05:38:00;;;;;;;265.50;130.00;;;;;;;;;;5006618;28;20262;-74
2022/11/02 05:40:26;;;;;;;262.43;128.63;;;;;;;;;;5018491;28;20266;-74
2022/11/02 05:42:57;;;;;;;323.63;151.57;;;;;;;;;;5023219;28;20314;-74
2022/11/02 05:45:23;;;;;;;248.90;122.53;;;;;;;;;;5029106;28;20188;-73
2022/11/02 05:47:49;;;;;;;269.57;129.13;;;;;;;;;;5027626;28;20213;-75
2022/11/02 05:50:15;;;;;;;272.53;132.10;;;;;;;;;;5033781;28;20208;-74
2022/11/02 05:52:41;;;;;;;264.77;129.20;;;;;;;;;;5028679;28;20235;-74
2022/11/02 05:55:07;;;;;;;319.63;150.47;;;;;;;;;;5028447;28;20222;-74
2022/11/02 05:57:33;;;;;;;347.23;162.87;;;;;;;;;;5018499;28;20207;-75
2022/11/02 05:59:59;;;;;;;306.90;145.23;;;;;;;;;;5013958;28;21654;-75
2022/11/02 06:02:25;;;;;;;287.43;139.27;;;;;;;;;;5028607;28;20207;-74
2022/11/02 06:04:51;;;;;;;369.20;173.50;;;;;;;;;;5004631;28;21364;-75
2022/11/02 06:07:17;;;;;;;413.50;197.87;;;;;;;;;;4978461;28;20215;-72
2022/11/02 06:09:43;;;;;;;332.00;152.40;;;;;;;;;;5010001;28;20216;-71
2022/11/02 06:12:09;;;;;;;295.53;137.73;;;;;;;;;;5017663;28;20837;-72
2022/11/02 06:14:35;;;;;;;279.63;133.73;;;;;;;;;;5018950;28;20268;-72
2022/11/02 06:17:01;;;;;;;328.47;154.17;;;;;;;;;;5004285;28;20215;-72
2022/11/02 06:19:27;;;;;;;360.90;166.03;;;;;;;;;;4998727;28;20244;-72
2022/11/02 06:21:53;;;;;;;363.40;165.83;;;;;;;;;;5002888;28;21051;-72
2022/11/02 06:24:19;;;;;;;304.37;145.40;;;;;;;;;;5009371;28;20188;-72
2022/11/02 06:26:45;;;;;;;305.47;145.50;;;;;;;;;;5010849;28;20207;-72
2022/11/02 06:29:11;;;;;;;286.37;139.10;;;;;;;;;;4995639;28;21034;-72
2022/11/02 06:31:37;;;;;;;308.80;146.07;;;;;;;;;;4995707;28;20262;-72
2022/11/02 06:34:03;;;;;;;278.17;134.23;;;;;;;;;;5018924;28;20699;-71
2022/11/02 06:36:29;;;;;;;301.63;145.53;;;;;;;;;;5007009;28;20208;-72
2022/11/02 06:38:55;;;;;;;338.87;162.20;;;;;;;;;;4998340;28;20266;-72
2022/11/02 06:41:21;;;;;;;289.10;141.03;;;;;;;;;;4989387;28;20227;-71
2022/11/02 06:43:47;;;;;;;256.40;126.93;;;;;;;;;;5009366;28;20246;-71
2022/11/02 06:46:13;;;;;;;281.90;141.77;;;;;;;;;;5006623;28;20322;-73
2022/11/02 06:48:38;;;;;;;317.57;153.27;;;;;;;;;;5036221;28;20184;-73
2022/11/02 06:51:05;;;;;;;267.17;129.37;;;;;;;;;;5030046;28;20313;-73
2022/11/02 06:53:31;;;;;;;246.97;122.00;;;;;;;;;;5039308;28;20230;-73
2022/11/02 06:55:58;;;;;;;236.83;117.80;;;;;;;;;;5023396;28;20220;-72
2022/11/02 06:58:25;;;;;;;237.40;118.17;;;;;;;;;;5009644;28;20208;-73
2022/11/02 07:00:55;;;;;;;239.10;118.90;;;;;;;;;;5034617;28;20207;-73
2022/11/02 07:03:22;;;;;;;229.60;114.10;;;;;;;;;;5031503;28;20246;-73
2022/11/02 07:05:51;;;;;;;242.80;120.90;;;;;;;;;;5026601;28;20291;-74
2022/11/02 07:08:17;;;;;;;364.57;167.23;;;;;;;;;;5012579;28;20215;-69
2022/11/02 07:10:43;;;;;;;311.80;145.03;;;;;;;;;;5000444;28;20212;-70
2022/11/02 07:13:09;;;;;;;249.30;121.73;;;;;;;;;;5018041;28;20246;-69
2022/11/02 07:15:35;;;;;;;244.57;119.37;;;;;;;;;;5006261;28;20184;-75
2022/11/02 07:18:01;;;;;;;273.13;132.87;;;;;;;;;;5027349;28;20207;-71
2022/11/02 07:20:29;;;;;;;266.23;130.80;;;;;;;;;;5028507;28;20208;-71
2022/11/02 07:22:55;;;;;;;271.87;131.40;;;;;;;;;;5008970;28;20207;-71
2022/11/02 07:25:21;;;;;;;249.33;123.57;;;;;;;;;;5019237;28;20738;-73
2022/11/02 07:27:47;;;;;;;299.53;141.27;;;;;;;;;;5010556;28;20220;-70
2022/11/02 07:30:13;;;;;;;300.13;142.63;;;;;;;;;;5025915;28;20202;-70
2022/11/02 07:32:43;;;;;;;297.90;144.27;;;;;;;;;;5015888;28;20234;-71
2022/11/02 07:35:10;;;;;;;280.63;138.63;;;;;;;;;;5002768;28;20216;-70
2022/11/02 07:37:36;;;;;;;238.17;118.40;;;;;;;;;;5017274;28;20216;-70
2022/11/02 07:40:02;;;;;;;296.17;147.27;;;;;;;;;;5015209;28;20204;-70
2022/11/02 07:42:28;;;;;;;245.47;124.63;;;;;;;;;;5028237;28;20187;-71
2022/11/02 07:44:54;;;;;;;363.07;168.63;;;;;;;;;;4999950;28;20188;-71
2022/11/02 07:47:20;;;;;;;269.50;132.87;;;;;;;;;;4992597;28;20216;-70
2022/11/02 07:49:46;;;;;;;265.17;130.33;;;;;;;;;;5008794;28;20216;-70
2022/11/02 07:52:12;;;;;;;269.80;134.33;;;;;;;;;;5013233;28;20228;-70
2022/11/02 07:54:38;;;;;;;257.30;125.83;;;;;;;;;;5009110;28;20255;-70
2022/11/02 07:57:04;;;;;;;237.30;117.40;;;;;;;;;;5021432;28;20235;-70
2022/11/02 07:59:30;;;;;;;243.77;119.57;;;;;;;;;;5031387;28;20269;-70
2022/11/02 08:01:56;;;;;;;271.87;133.37;;;;;;;;;;5035461;28;20211;-70
2022/11/02 08:04:22;;;;;;;251.53;124.00;;;;;;;;;;5031420;28;20208;-70
2022/11/02 08:06:47;;;;;;;252.80;126.10;;;;;;;;;;5021538;28;20266;-70
2022/11/02 08:09:14;;;;;;;292.03;146.00;;;;;;;;;;5028356;28;20230;-70
2022/11/02 08:11:40;;;;;;;263.97;131.57;;;;;;;;;;5036713;28;20215;-70
2022/11/02 08:14:06;;;;;;;259.13;126.83;;;;;;;;;;5029410;28;20207;-70
2022/11/02 08:16:32;;;;;;;287.67;142.87;;;;;;;;;;5037519;28;20690;-70
2022/11/02 08:18:58;;;;;;;272.40;134.83;;;;;;;;;;5034289;28;20344;-70
2022/11/02 08:21:25;;;;;;;264.77;130.10;;;;;;;;;;5033805;28;20274;-70
2022/11/02 08:23:51;;;;;;;265.87;132.33;;;;;;;;;;5034650;28;20192;-70
2022/11/02 08:26:17;;;;;;;265.50;131.47;;;;;;;;;;5033930;28;20208;-70
2022/11/02 08:28:43;;;;;;;289.90;142.93;;;;;;;;;;5032991;28;21852;-70
2022/11/02 08:31:14;;;;;;;261.80;130.93;;;;;;;;;;5036120;28;20386;-70
2022/11/02 08:33:40;;;;;;;263.27;129.93;;;;;;;;;;5032895;28;20528;-70
2022/11/02 08:36:07;;;;;;;265.17;131.07;;;;;;;;;;5037254;28;20242;-70
2022/11/02 08:38:33;;;;;;;264.60;129.07;;;;;;;;;;5032152;28;20219;-70
2022/11/02 08:40:59;;;;;;;267.90;130.57;;;;;;;;;;5041692;28;20211;-70
2022/11/02 08:43:25;;;;;;;268.73;131.50;;;;;;;;;;5034285;28;20397;-70
2022/11/02 08:45:51;;;;;;;272.83;134.70;;;;;;;;;;5036409;28;20941;-70
2022/11/02 08:48:17;;;;;;;285.87;145.33;;;;;;;;;;5037962;28;20266;-70
2022/11/02 08:50:43;;;;;;;275.63;137.33;;;;;;;;;;5033817;28;20210;-71
2022/11/02 08:53:09;;;;;;;286.77;142.23;;;;;;;;;;5028012;28;20210;-70
2022/11/02 08:55:35;;;;;;;267.87;130.30;;;;;;;;;;5025704;28;20215;-70
2022/11/02 08:58:01;;;;;;;276.53;137.20;;;;;;;;;;5015246;28;20781;-70
2022/11/02 09:00:29;;;;;;;283.07;141.07;;;;;;;;;;5032267;28;20187;-70
2022/11/02 09:02:58;;;;;;;278.53;135.07;;;;;;;;;;5030681;28;20270;-70
2022/11/02 09:05:24;;;;;;;281.07;136.03;;;;;;;;;;5027629;28;20230;-70
2022/11/02 09:08:00;;;;;;;275.70;134.50;;;;;;;;;;5045647;28;20227;-70
2022/11/02 09:10:27;;;;;;;272.83;133.37;;;;;;;;;;5016177;28;23095;-70
2022/11/02 09:12:53;;;;;;;280.60;135.13;;;;;;;;;;5009560;28;20242;-70
2022/11/02 09:15:19;;;;;;;271.77;133.37;;;;;;;;;;5014852;28;20221;-70
2022/11/02 09:17:48;;;;;;;292.87;142.77;;;;;;;;;;5012675;28;20224;-70
2022/11/02 09:20:16;;;;;;;285.60;138.73;;;;;;;;;;5014127;28;20244;-70
2022/11/02 09:22:42;;;;;;;291.00;142.17;;;;;;;;;;5012682;28;20221;-70
2022/11/02 09:25:08;;;;;;;282.50;135.40;;;;;;;;;;5007279;28;20225;-71
2022/11/02 09:27:34;;;;;;;281.93;133.60;;;;;;;;;;5008053;28;20724;-70
2022/11/02 09:30:00;;;;;;;289.53;137.23;;;;;;;;;;5012370;28;20185;-71
2022/11/02 09:32:26;;;;;;;303.03;146.77;;;;;;;;;;5017263;28;20234;-71
2022/11/02 09:34:52;;;;;;;308.87;148.27;;;;;;;;;;5015351;28;20584;-71
2022/11/02 09:37:18;;;;;;;339.27;165.37;;;;;;;;;;5006751;28;20228;-71
2022/11/02 09:39:44;;;;;;;352.40;161.93;;;;;;;;;;5004646;28;20225;-75
2022/11/02 09:42:09;;;;;;;307.53;146.73;;;;;;;;;;5005106;28;20200;-74
2022/11/02 09:45:11;;;;;;;325.30;157.00;;;;;;;;;;4990477;28;20397;-71
2022/11/02 09:47:42;;;;;;;346.10;162.50;;;;;;;;;;4928601;28;20241;-71
2022/11/02 09:50:13;;;;;;;309.30;146.90;;;;;;;;;;4981324;28;20489;-71
2022/11/02 09:52:40;;;;;;;311.73;146.13;;;;;;;;;;5001087;28;20233;-71
2022/11/02 09:55:12;;;;;;;341.67;160.83;;;;;;;;;;4997373;28;20224;-71
2022/11/02 09:57:39;;;;;;;370.50;175.40;;;;;;;;;;5002882;28;20716;-72
2022/11/02 10:00:05;;;;;;;340.07;160.23;;;;;;;;;;4998547;28;20303;-72
2022/11/02 10:02:50;;;;;;;379.80;180.57;;;;;;;;;;5007863;28;20242;-71
2022/11/02 10:05:24;;;;;;;309.00;143.77;;;;;;;;;;4988976;28;20219;-71
2022/11/02 10:07:53;;;;;;;305.33;144.00;;;;;;;;;;5010258;28;20211;-71
2022/11/02 10:10:25;;;;;;;331.10;156.23;;;;;;;;;;5003438;28;20216;-71
2022/11/02 10:13:14;;;;;;;413.37;196.27;;;;;;;;;;4993358;28;20228;-72
2022/11/02 10:15:50;;;;;;;385.63;184.10;;;;;;;;;;4992964;28;20196;-71
2022/11/02 10:18:22;;;;;;;336.73;158.93;;;;;;;;;;5001109;28;20183;-71
2022/11/02 10:20:50;;;;;;;323.70;150.60;;;;;;;;;;5006585;28;20289;-71
2022/11/02 10:23:27;;;;;;;373.50;176.80;;;;;;;;;;5027849;28;20261;-71
2022/11/02 10:25:54;;;;;;;404.77;194.30;;;;;;;;;;5013320;28;20215;-71
2022/11/02 10:28:23;;;;;;;386.47;188.03;;;;;;;;;;5010196;28;20227;-71
2022/11/02 10:30:49;;;;;;;334.97;161.67;;;;;;;;;;5005088;28;20236;-71
2022/11/02 10:33:17;;;;;;;316.27;153.23;;;;;;;;;;5012268;28;20173;-71
2022/11/02 10:35:47;;;;;;;317.80;155.47;;;;;;;;;;5016084;28;20216;-70
2022/11/02 10:38:21;;;;;;;359.93;170.57;;;;;;;;;;4997669;28;20196;-72
2022/11/02 10:41:07;;;;;;;387.93;177.87;;;;;;;;;;5013741;28;20221;-73
2022/11/02 10:43:33;;;;;;;368.60;171.50;;;;;;;;;;5011551;28;20220;-73
2022/11/02 10:46:22;;;;;;;367.83;181.13;;;;;;;;;;5015168;28;20219;-73
2022/11/02 10:49:05;;;;;;;350.80;165.17;;;;;;;;;;5015179;28;20299;-72
2022/11/02 10:51:31;;;;;;;405.20;183.77;;;;;;;;;;5022093;28;20222;-72
2022/11/02 10:53:57;;;;;;;372.63;177.03;;;;;;;;;;5013939;28;20782;-73
2022/11/02 10:56:30;;;;;;;375.57;172.57;;;;;;;;;;5016664;28;20207;-73
2022/11/02 10:58:59;;;;;;;376.83;175.40;;;;;;;;;;5008736;28;20219;-71
2022/11/02 11:01:26;;;;;;;348.27;160.50;;;;;;;;;;5028803;28;20223;-72
2022/11/02 11:03:59;;;;;;;430.17;199.00;;;;;;;;;;5003106;28;20222;-72
2022/11/02 11:06:30;;;;;;;351.53;167.27;;;;;;;;;;5029127;28;20211;-72
2022/11/02 11:09:00;;;;;;;405.70;186.93;;;;;;;;;;5020408;28;20219;-72
2022/11/02 11:11:34;;;;;;;358.20;167.87;;;;;;;;;;5021687;28;20227;-72
2022/11/02 11:14:14;;;;;;;387.87;186.27;;;;;;;;;;5002843;28;20360;-72
2022/11/02 11:16:41;;;;;;;348.50;165.37;;;;;;;;;;4999418;28;20234;-73
2022/11/02 11:19:27;;;;;;;405.80;192.03;;;;;;;;;;4993669;28;20216;-72
2022/11/02 11:21:53;;;;;;;350.83;169.77;;;;;;;;;;4983675;28;20238;-71
2022/11/02 11:24:21;;;;;;;392.40;192.63;;;;;;;;;;4996970;28;20711;-76
2022/11/02 11:26:59;;;;;;;374.60;180.87;;;;;;;;;;4995056;28;20226;-73
2022/11/02 11:29:29;;;;;;;395.83;189.93;;;;;;;;;;4995676;28;20231;-71
2022/11/02 11:31:55;;;;;;;363.57;172.47;;;;;;;;;;4996884;28;20755;-71
2022/11/02 11:34:29;;;;;;;428.07;203.17;;;;;;;;;;4992494;28;20350;-71
2022/11/02 11:37:04;;;;;;;426.50;199.23;;;;;;;;;;4980127;28;20267;-71
2022/11/02 11:39:31;;;;;;;422.90;200.85;;;;;;;;;;4984810;28;20322;-72
2022/11/02 11:41:57;;;;;;;330.30;155.40;;;;;;;;;;5002551;28;20180;-71
2022/11/02 11:44:24;;;;;;;396.17;192.07;;;;;;;;;;4994094;28;20220;-71
2022/11/02 11:46:54;;;;;;;402.70;193.67;;;;;;;;;;4996677;28;20256;-72
2022/11/02 11:49:23;;;;;;;360.43;170.33;;;;;;;;;;5008371;28;20224;-72
2022/11/02 11:51:51;;;;;;;464.67;219.27;;;;;;;;;;4996692;28;20224;-71
2022/11/02 11:54:20;;;;;;;482.90;237.90;;;;;;;;;;4947243;28;22120;-71
2022/11/02 11:56:47;;;;;;;357.93;171.00;;;;;;;;;;5012804;28;20211;-71
2022/11/02 11:59:39;;;;;;;331.70;156.43;;;;;;;;;;5011550;28;20220;-71
2022/11/02 12:02:18;;;;;;;340.93;165.57;;;;;;;;;;5012218;28;20308;-71
2022/11/02 12:04:44;;;;;;;352.93;169.77;;;;;;;;;;5006507;28;20212;-71
2022/11/02 12:07:10;;;;;;;408.97;196.33;;;;;;;;;;4990320;28;20554;-71
2022/11/02 12:09:38;;;;;;;370.40;184.53;;;;;;;;;;5007663;28;20231;-72
2022/11/02 12:12:20;;;;;;;383.23;186.47;;;;;;;;;;5005818;28;20215;-71
2022/11/02 12:15:08;;;;;;;339.87;167.67;;;;;;;;;;5006855;28;20236;-71
2022/11/02 12:17:49;;;;;;;347.20;172.33;;;;;;;;;;5014937;28;20979;-72
2022/11/02 12:20:39;;;;;;;337.80;161.43;;;;;;;;;;5012362;28;20211;-72
2022/11/02 12:23:28;;;;;;;358.07;170.73;;;;;;;;;;5003935;28;20284;-72
2022/11/02 12:26:23;;;;;;;359.63;173.47;;;;;;;;;;5013287;28;20204;-72
2022/11/02 12:29:08;;;;;;;346.57;162.47;;;;;;;;;;4946351;28;20223;-72
2022/11/02 12:31:39;;;;;;;350.80;168.07;;;;;;;;;;5003029;28;20819;-72
2022/11/02 12:34:34;;;;;;;339.57;161.77;;;;;;;;;;5002057;28;20216;-72
2022/11/02 12:37:22;;;;;;;393.70;191.67;;;;;;;;;;5016432;28;20554;-73
2022/11/02 12:39:57;;;;;;;442.27;205.97;;;;;;;;;;4987322;28;22734;-72
2022/11/02 12:42:31;;;;;;;522.33;244.10;;;;;;;;;;4991614;28;20319;-72
2022/11/02 12:45:19;;;;;;;365.83;171.40;;;;;;;;;;4972736;28;20202;-72
2022/11/02 12:47:58;;;;;;;422.13;195.33;;;;;;;;;;4996696;28;20319;-72
2022/11/02 12:50:45;;;;;;;359.03;166.67;;;;;;;;;;4983388;28;20306;-72
2022/11/02 12:53:29;;;;;;;357.43;164.80;;;;;;;;;;4992398;28;20244;-72
2022/11/02 12:55:56;;;;;;;337.27;157.57;;;;;;;;;;5007662;28;20689;-72
2022/11/02 12:58:22;;;;;;;339.10;158.43;;;;;;;;;;5009457;28;20212;-72
2022/11/02 13:00:51;;;;;;;386.00;182.57;;;;;;;;;;5007248;28;20279;-73
2022/11/02 13:03:26;;;;;;;333.97;159.80;;;;;;;;;;5005411;28;20177;-72
2022/11/02 13:05:56;;;;;;;373.43;182.50;;;;;;;;;;5024362;28;20555;-72
2022/11/02 13:08:24;;;;;;;435.00;210.83;;;;;;;;;;5010290;28;20243;-72
2022/11/02 13:10:53;;;;;;;391.63;188.27;;;;;;;;;;5012729;28;20211;-72
2022/11/02 13:13:32;;;;;;;386.17;191.77;;;;;;;;;;5011741;28;20207;-73
2022/11/02 13:16:00;;;;;;;383.93;187.97;;;;;;;;;;5020619;28;20230;-72
2022/11/02 13:18:44;;;;;;;386.60;192.67;;;;;;;;;;5017878;28;20526;-72
2022/11/02 13:21:11;;;;;;;370.63;187.83;;;;;;;;;;5011666;28;20192;-72
2022/11/02 13:23:39;;;;;;;408.37;203.77;;;;;;;;;;5020297;28;20253;-72
2022/11/02 13:26:13;;;;;;;398.23;193.93;;;;;;;;;;5012990;28;20278;-72
2022/11/02 13:28:46;;;;;;;381.73;187.13;;;;;;;;;;5027911;28;20229;-72
2022/11/02 13:31:17;;;;;;;343.83;169.23;;;;;;;;;;5029454;28;20223;-72
2022/11/02 13:33:46;;;;;;;379.43;183.57;;;;;;;;;;5014490;28;22981;-72
2022/11/02 13:36:13;;;;;;;378.90;183.03;;;;;;;;;;5020634;28;20196;-72
2022/11/02 13:38:42;;;;;;;374.70;182.63;;;;;;;;;;5015740;28;21053;-72
2022/11/02 13:41:08;;;;;;;330.90;161.37;;;;;;;;;;5033588;28;20216;-72
2022/11/02 13:43:42;;;;;;;340.57;172.43;;;;;;;;;;5011251;28;20604;-72
2022/11/02 13:46:08;;;;;;;369.10;185.63;;;;;;;;;;5008648;28;20245;-72
2022/11/02 13:48:48;;;;;;;376.27;191.40;;;;;;;;;;5023151;28;20650;-73
2022/11/02 13:51:23;;;;;;;421.87;211.93;;;;;;;;;;5010422;28;20215;-72
2022/11/02 13:53:55;;;;;;;356.57;178.47;;;;;;;;;;4999628;28;21703;-73
2022/11/02 13:56:26;;;;;;;369.30;186.27;;;;;;;;;;5006257;28;20227;-72
2022/11/02 13:58:57;;;;;;;371.83;190.77;;;;;;;;;;5010039;28;20270;-73
2022/11/02 14:01:24;;;;;;;327.60;173.63;;;;;;;;;;5009235;28;20215;-72
2022/11/02 14:04:16;;;;;;;394.43;206.03;;;;;;;;;;5002906;28;20216;-73
2022/11/02 14:06:50;;;;;;;380.27;198.07;;;;;;;;;;4995004;28;20324;-72
2022/11/02 14:09:32;;;;;;;409.43;211.87;;;;;;;;;;4998581;28;20184;-73
2022/11/02 14:12:16;;;;;;;350.83;188.17;;;;;;;;;;5045028;28;20228;-73
2022/11/02 14:14:43;;;;;;;359.90;189.27;;;;;;;;;;5023250;28;20212;-73
2022/11/02 14:17:10;;;;;;;376.43;196.07;;;;;;;;;;5032240;28;20557;-73
2022/11/02 14:19:39;;;;;;;410.77;212.60;;;;;;;;;;5030982;28;20214;-73
2022/11/02 14:22:09;;;;;;;322.67;167.93;;;;;;;;;;5030704;28;20212;-72